sensor_id;sensor_type;location;lat;lon;timestamp;temperature;humidity
41437;DHT22;27178;49.460;10.850;2023-02-25T00:01:42;8.20;78.90
41437;DHT22;27178;49.460;10.850;2023-02-25T00:04:28;8.30;79.00
41437;DHT22;27178;49.460;10.850;2023-02-25T00:06:57;8.30;78.90
41437;DHT22;27178;49.460;10.850;2023-02-25T00:09:27;8.30;79.00
41437;DHT22;27178;49.460;10.850;2023-02-25T00:11:55;8.30;79.00
41437;DHT22;27178;49.460;10.850;2023-02-25T00:14:24;8.30;79.00
41437;DHT22;27178;49.460;10.850;2023-02-25T00:16:53;8.30;79.00
41437;DHT22;27178;49.460;10.850;2023-02-25T00:19:22;8.30;79.00
41437;DHT22;27178;49.460;10.850;2023-02-25T00:21:50;8.40;79.10
41437;DHT22;27178;49.460;10.850;2023-02-25T00:24:19;8.30;79.00
41437;DHT22;27178;49.460;10.850;2023-02-25T00:26:48;8.30;78.70
41437;DHT22;27178;49.460;10.850;2023-02-25T00:29:17;8.30;78.50
41437;DHT22;27178;49.460;10.850;2023-02-25T00:31:46;8.30;78.30
41437;DHT22;27178;49.460;10.850;2023-02-25T00:34:14;8.30;78.20
41437;DHT22;27178;49.460;10.850;2023-02-25T00:36:43;8.30;78.10
41437;DHT22;27178;49.460;10.850;2023-02-25T00:39:12;8.20;78.10
41437;DHT22;27178;49.460;10.850;2023-02-25T00:41:41;8.20;78.20
41437;DHT22;27178;49.460;10.850;2023-02-25T00:44:11;8.20;78.30
41437;DHT22;27178;49.460;10.850;2023-02-25T00:46:39;8.20;78.30
41437;DHT22;27178;49.460;10.850;2023-02-25T00:49:07;8.20;78.40
41437;DHT22;27178;49.460;10.850;2023-02-25T00:51:39;8.10;78.50
41437;DHT22;27178;49.460;10.850;2023-02-25T00:54:07;8.10;78.60
41437;DHT22;27178;49.460;10.850;2023-02-25T00:56:35;8.10;78.90
41437;DHT22;27178;49.460;10.850;2023-02-25T00:59:04;8.10;79.00
41437;DHT22;27178;49.460;10.850;2023-02-25T01:01:34;8.10;79.20
41437;DHT22;27178;49.460;10.850;2023-02-25T01:04:05;8.10;79.20
41437;DHT22;27178;49.460;10.850;2023-02-25T01:06:34;8.10;79.20
41437;DHT22;27178;49.460;10.850;2023-02-25T01:09:05;8.10;79.20
41437;DHT22;27178;49.460;10.850;2023-02-25T01:11:42;8.10;79.40
41437;DHT22;27178;49.460;10.850;2023-02-25T01:14:13;8.10;79.40
41437;DHT22;27178;49.460;10.850;2023-02-25T01:16:45;8.10;79.50
41437;DHT22;27178;49.460;10.850;2023-02-25T01:19:15;8.10;79.50
41437;DHT22;27178;49.460;10.850;2023-02-25T01:21:46;8.20;79.60
41437;DHT22;27178;49.460;10.850;2023-02-25T01:24:16;8.20;80.20
41437;DHT22;27178;49.460;10.850;2023-02-25T01:26:48;8.20;79.40
41437;DHT22;27178;49.460;10.850;2023-02-25T01:29:19;8.10;79.20
41437;DHT22;27178;49.460;10.850;2023-02-25T01:31:52;8.20;79.30
41437;DHT22;27178;49.460;10.850;2023-02-25T01:34:21;8.20;79.20
41437;DHT22;27178;49.460;10.850;2023-02-25T01:36:50;8.10;79.00
41437;DHT22;27178;49.460;10.850;2023-02-25T01:39:19;8.10;79.00
41437;DHT22;27178;49.460;10.850;2023-02-25T01:41:50;8.10;79.00
41437;DHT22;27178;49.460;10.850;2023-02-25T01:44:21;8.10;78.90
41437;DHT22;27178;49.460;10.850;2023-02-25T01:46:52;8.10;78.90
41437;DHT22;27178;49.460;10.850;2023-02-25T01:49:22;8.10;78.90
41437;DHT22;27178;49.460;10.850;2023-02-25T01:52:00;8.10;78.80
41437;DHT22;27178;49.460;10.850;2023-02-25T01:54:30;8.10;78.90
41437;DHT22;27178;49.460;10.850;2023-02-25T01:56:59;8.10;78.80
41437;DHT22;27178;49.460;10.850;2023-02-25T01:59:28;8.10;78.70
41437;DHT22;27178;49.460;10.850;2023-02-25T02:01:58;8.00;78.60
41437;DHT22;27178;49.460;10.850;2023-02-25T02:04:26;8.10;78.60
41437;DHT22;27178;49.460;10.850;2023-02-25T02:06:56;8.00;78.50
41437;DHT22;27178;49.460;10.850;2023-02-25T02:09:26;8.00;78.50
41437;DHT22;27178;49.460;10.850;2023-02-25T02:11:56;8.00;78.50
41437;DHT22;27178;49.460;10.850;2023-02-25T02:14:26;8.00;78.50
41437;DHT22;27178;49.460;10.850;2023-02-25T02:17:14;8.00;78.50
41437;DHT22;27178;49.460;10.850;2023-02-25T02:20:09;7.90;78.60
41437;DHT22;27178;49.460;10.850;2023-02-25T02:22:55;7.90;78.70
41437;DHT22;27178;49.460;10.850;2023-02-25T02:25:45;7.90;78.70
41437;DHT22;27178;49.460;10.850;2023-02-25T02:28:31;7.90;78.70
41437;DHT22;27178;49.460;10.850;2023-02-25T02:31:13;7.90;78.80
41437;DHT22;27178;49.460;10.850;2023-02-25T02:33:53;7.90;78.80
41437;DHT22;27178;49.460;10.850;2023-02-25T02:36:29;7.80;78.70
41437;DHT22;27178;49.460;10.850;2023-02-25T02:39:06;7.90;78.80
41437;DHT22;27178;49.460;10.850;2023-02-25T02:41:44;7.80;78.70
41437;DHT22;27178;49.460;10.850;2023-02-25T02:44:16;7.80;78.70
41437;DHT22;27178;49.460;10.850;2023-02-25T02:46:51;7.80;78.80
41437;DHT22;27178;49.460;10.850;2023-02-25T02:49:25;7.80;78.80
41437;DHT22;27178;49.460;10.850;2023-02-25T02:51:58;7.80;78.80
41437;DHT22;27178;49.460;10.850;2023-02-25T02:54:35;7.70;78.70
41437;DHT22;27178;49.460;10.850;2023-02-25T02:57:08;7.70;78.80
41437;DHT22;27178;49.460;10.850;2023-02-25T02:59:41;7.70;78.70
41437;DHT22;27178;49.460;10.850;2023-02-25T03:02:14;7.70;78.80
41437;DHT22;27178;49.460;10.850;2023-02-25T03:04:47;7.70;78.80
41437;DHT22;27178;49.460;10.850;2023-02-25T03:07:17;7.70;78.80
41437;DHT22;27178;49.460;10.850;2023-02-25T03:09:51;7.70;78.90
41437;DHT22;27178;49.460;10.850;2023-02-25T03:12:20;7.70;78.90
41437;DHT22;27178;49.460;10.850;2023-02-25T03:14:48;7.70;78.80
41437;DHT22;27178;49.460;10.850;2023-02-25T03:17:20;7.70;78.80
41437;DHT22;27178;49.460;10.850;2023-02-25T03:19:53;7.70;78.80
41437;DHT22;27178;49.460;10.850;2023-02-25T03:22:26;7.70;78.70
41437;DHT22;27178;49.460;10.850;2023-02-25T03:24:59;7.70;78.60
41437;DHT22;27178;49.460;10.850;2023-02-25T03:27:33;7.70;78.50
41437;DHT22;27178;49.460;10.850;2023-02-25T03:30:06;7.70;78.50
41437;DHT22;27178;49.460;10.850;2023-02-25T03:32:42;7.70;78.40
41437;DHT22;27178;49.460;10.850;2023-02-25T03:35:12;7.70;78.40
41437;DHT22;27178;49.460;10.850;2023-02-25T03:37:43;7.70;78.30
41437;DHT22;27178;49.460;10.850;2023-02-25T03:40:13;7.70;78.20
41437;DHT22;27178;49.460;10.850;2023-02-25T03:42:49;7.60;78.00
41437;DHT22;27178;49.460;10.850;2023-02-25T03:45:19;7.60;78.00
41437;DHT22;27178;49.460;10.850;2023-02-25T03:47:50;7.60;77.90
41437;DHT22;27178;49.460;10.850;2023-02-25T03:50:21;7.60;77.80
41437;DHT22;27178;49.460;10.850;2023-02-25T03:52:51;7.60;77.70
41437;DHT22;27178;49.460;10.850;2023-02-25T03:55:20;7.60;77.70
41437;DHT22;27178;49.460;10.850;2023-02-25T03:57:50;7.60;77.70
41437;DHT22;27178;49.460;10.850;2023-02-25T04:00:24;7.50;77.60
41437;DHT22;27178;49.460;10.850;2023-02-25T04:02:55;7.50;77.60
41437;DHT22;27178;49.460;10.850;2023-02-25T04:05:24;7.50;77.50
41437;DHT22;27178;49.460;10.850;2023-02-25T04:07:53;7.50;77.50
41437;DHT22;27178;49.460;10.850;2023-02-25T04:10:22;7.50;77.40
41437;DHT22;27178;49.460;10.850;2023-02-25T04:12:51;7.40;77.40
41437;DHT22;27178;49.460;10.850;2023-02-25T04:15:20;7.40;77.20
41437;DHT22;27178;49.460;10.850;2023-02-25T04:17:48;7.40;77.20
41437;DHT22;27178;49.460;10.850;2023-02-25T04:20:18;7.40;77.20
41437;DHT22;27178;49.460;10.850;2023-02-25T04:22:47;7.40;77.40
41437;DHT22;27178;49.460;10.850;2023-02-25T04:25:15;7.40;77.30
41437;DHT22;27178;49.460;10.850;2023-02-25T04:27:43;7.30;77.30
41437;DHT22;27178;49.460;10.850;2023-02-25T04:30:13;7.30;77.40
41437;DHT22;27178;49.460;10.850;2023-02-25T04:32:42;7.30;77.40
41437;DHT22;27178;49.460;10.850;2023-02-25T04:35:11;7.30;77.20
41437;DHT22;27178;49.460;10.850;2023-02-25T04:37:41;7.30;77.20
41437;DHT22;27178;49.460;10.850;2023-02-25T04:40:14;7.30;77.50
41437;DHT22;27178;49.460;10.850;2023-02-25T04:42:43;7.30;77.60
41437;DHT22;27178;49.460;10.850;2023-02-25T04:45:13;7.30;77.50
41437;DHT22;27178;49.460;10.850;2023-02-25T04:47:41;7.30;77.50
41437;DHT22;27178;49.460;10.850;2023-02-25T04:50:11;7.30;77.40
41437;DHT22;27178;49.460;10.850;2023-02-25T04:52:41;7.30;77.40
41437;DHT22;27178;49.460;10.850;2023-02-25T04:55:10;7.30;77.30
41437;DHT22;27178;49.460;10.850;2023-02-25T04:57:39;7.30;77.20
41437;DHT22;27178;49.460;10.850;2023-02-25T05:00:12;7.40;77.20
41437;DHT22;27178;49.460;10.850;2023-02-25T05:02:46;7.40;77.20
41437;DHT22;27178;49.460;10.850;2023-02-25T05:05:15;7.40;77.20
41437;DHT22;27178;49.460;10.850;2023-02-25T05:07:45;7.40;77.10
41437;DHT22;27178;49.460;10.850;2023-02-25T05:10:13;7.40;77.00
41437;DHT22;27178;49.460;10.850;2023-02-25T05:12:42;7.40;77.00
41437;DHT22;27178;49.460;10.850;2023-02-25T05:15:11;7.40;76.80
41437;DHT22;27178;49.460;10.850;2023-02-25T05:17:39;7.40;76.90
41437;DHT22;27178;49.460;10.850;2023-02-25T05:20:08;7.40;76.90
41437;DHT22;27178;49.460;10.850;2023-02-25T05:22:39;7.40;76.80
41437;DHT22;27178;49.460;10.850;2023-02-25T05:25:09;7.40;77.60
41437;DHT22;27178;49.460;10.850;2023-02-25T05:27:38;7.40;76.80
41437;DHT22;27178;49.460;10.850;2023-02-25T05:30:08;7.40;76.70
41437;DHT22;27178;49.460;10.850;2023-02-25T05:32:37;7.40;76.70
41437;DHT22;27178;49.460;10.850;2023-02-25T05:35:07;7.40;76.60
41437;DHT22;27178;49.460;10.850;2023-02-25T05:37:36;7.40;76.60
41437;DHT22;27178;49.460;10.850;2023-02-25T05:40:06;7.40;76.50
41437;DHT22;27178;49.460;10.850;2023-02-25T05:42:36;7.40;76.40
41437;DHT22;27178;49.460;10.850;2023-02-25T05:45:05;7.40;76.40
41437;DHT22;27178;49.460;10.850;2023-02-25T05:47:34;7.40;76.30
41437;DHT22;27178;49.460;10.850;2023-02-25T05:50:04;7.40;76.20
41437;DHT22;27178;49.460;10.850;2023-02-25T05:52:32;7.40;76.40
41437;DHT22;27178;49.460;10.850;2023-02-25T05:55:01;7.40;76.30
41437;DHT22;27178;49.460;10.850;2023-02-25T05:57:29;7.40;76.30
41437;DHT22;27178;49.460;10.850;2023-02-25T05:59:58;7.40;76.30
41437;DHT22;27178;49.460;10.850;2023-02-25T06:02:27;7.40;76.30
41437;DHT22;27178;49.460;10.850;2023-02-25T06:04:56;7.40;76.30
41437;DHT22;27178;49.460;10.850;2023-02-25T06:07:24;7.40;76.30
41437;DHT22;27178;49.460;10.850;2023-02-25T06:09:52;7.40;76.40
41437;DHT22;27178;49.460;10.850;2023-02-25T06:12:21;7.40;76.30
41437;DHT22;27178;49.460;10.850;2023-02-25T06:14:49;7.30;76.10
41437;DHT22;27178;49.460;10.850;2023-02-25T06:17:19;7.40;76.10
41437;DHT22;27178;49.460;10.850;2023-02-25T06:19:51;7.40;76.00
41437;DHT22;27178;49.460;10.850;2023-02-25T06:22:20;7.30;75.90
41437;DHT22;27178;49.460;10.850;2023-02-25T06:24:48;7.30;75.90
41437;DHT22;27178;49.460;10.850;2023-02-25T06:27:17;7.30;75.90
41437;DHT22;27178;49.460;10.850;2023-02-25T06:29:47;7.30;75.70
41437;DHT22;27178;49.460;10.850;2023-02-25T06:32:16;7.30;75.70
41437;DHT22;27178;49.460;10.850;2023-02-25T06:34:46;7.30;75.70
41437;DHT22;27178;49.460;10.850;2023-02-25T06:37:15;7.30;75.40
41437;DHT22;27178;49.460;10.850;2023-02-25T06:39:43;7.30;75.50
41437;DHT22;27178;49.460;10.850;2023-02-25T06:42:11;7.30;75.50
41437;DHT22;27178;49.460;10.850;2023-02-25T06:44:39;7.20;75.50
41437;DHT22;27178;49.460;10.850;2023-02-25T06:47:08;7.30;75.60
41437;DHT22;27178;49.460;10.850;2023-02-25T06:49:36;7.30;75.60
41437;DHT22;27178;49.460;10.850;2023-02-25T06:52:06;7.30;75.50
41437;DHT22;27178;49.460;10.850;2023-02-25T06:54:34;7.30;75.60
41437;DHT22;27178;49.460;10.850;2023-02-25T06:57:03;7.30;75.50
41437;DHT22;27178;49.460;10.850;2023-02-25T06:59:31;7.30;75.50
41437;DHT22;27178;49.460;10.850;2023-02-25T07:02:01;7.30;75.50
41437;DHT22;27178;49.460;10.850;2023-02-25T07:04:30;7.30;75.60
41437;DHT22;27178;49.460;10.850;2023-02-25T07:06:58;7.30;75.40
41437;DHT22;27178;49.460;10.850;2023-02-25T07:09:28;7.30;75.50
41437;DHT22;27178;49.460;10.850;2023-02-25T07:11:57;7.30;75.50
41437;DHT22;27178;49.460;10.850;2023-02-25T07:14:25;7.30;75.50
41437;DHT22;27178;49.460;10.850;2023-02-25T07:16:54;7.30;75.50
41437;DHT22;27178;49.460;10.850;2023-02-25T07:19:22;7.40;75.50
41437;DHT22;27178;49.460;10.850;2023-02-25T07:21:50;7.40;75.30
41437;DHT22;27178;49.460;10.850;2023-02-25T07:24:19;7.40;75.30
41437;DHT22;27178;49.460;10.850;2023-02-25T07:26:49;7.40;75.30
41437;DHT22;27178;49.460;10.850;2023-02-25T07:29:18;7.40;75.40
41437;DHT22;27178;49.460;10.850;2023-02-25T07:31:46;7.40;75.50
41437;DHT22;27178;49.460;10.850;2023-02-25T07:34:15;7.40;75.40
41437;DHT22;27178;49.460;10.850;2023-02-25T07:36:43;7.40;75.30
41437;DHT22;27178;49.460;10.850;2023-02-25T07:39:12;7.40;75.30
41437;DHT22;27178;49.460;10.850;2023-02-25T07:41:40;7.40;75.20
41437;DHT22;27178;49.460;10.850;2023-02-25T07:44:10;7.50;75.10
41437;DHT22;27178;49.460;10.850;2023-02-25T07:46:39;7.50;75.10
41437;DHT22;27178;49.460;10.850;2023-02-25T07:49:07;7.50;75.00
41437;DHT22;27178;49.460;10.850;2023-02-25T07:51:36;7.50;74.90
41437;DHT22;27178;49.460;10.850;2023-02-25T07:54:04;7.50;74.80
41437;DHT22;27178;49.460;10.850;2023-02-25T07:56:32;7.50;74.70
41437;DHT22;27178;49.460;10.850;2023-02-25T07:59:01;7.50;74.60
41437;DHT22;27178;49.460;10.850;2023-02-25T08:01:32;7.50;74.60
41437;DHT22;27178;49.460;10.850;2023-02-25T08:04:03;7.60;74.40
41437;DHT22;27178;49.460;10.850;2023-02-25T08:06:34;7.60;74.40
41437;DHT22;27178;49.460;10.850;2023-02-25T08:09:04;7.60;74.40
41437;DHT22;27178;49.460;10.850;2023-02-25T08:11:32;7.60;74.40
41437;DHT22;27178;49.460;10.850;2023-02-25T08:14:01;7.60;74.40
41437;DHT22;27178;49.460;10.850;2023-02-25T08:16:32;7.60;74.30
41437;DHT22;27178;49.460;10.850;2023-02-25T08:19:01;7.60;74.40
41437;DHT22;27178;49.460;10.850;2023-02-25T08:21:30;7.70;74.40
41437;DHT22;27178;49.460;10.850;2023-02-25T08:23:59;7.70;74.20
41437;DHT22;27178;49.460;10.850;2023-02-25T08:26:28;7.70;74.20
41437;DHT22;27178;49.460;10.850;2023-02-25T08:28:56;7.70;74.20
41437;DHT22;27178;49.460;10.850;2023-02-25T08:31:24;7.70;73.90
41437;DHT22;27178;49.460;10.850;2023-02-25T08:33:55;7.70;74.00
41437;DHT22;27178;49.460;10.850;2023-02-25T08:36:27;7.70;74.00
41437;DHT22;27178;49.460;10.850;2023-02-25T08:38:57;7.70;74.00
41437;DHT22;27178;49.460;10.850;2023-02-25T08:41:27;7.70;73.90
41437;DHT22;27178;49.460;10.850;2023-02-25T08:43:57;7.80;74.00
41437;DHT22;27178;49.460;10.850;2023-02-25T08:46:28;7.70;73.80
41437;DHT22;27178;49.460;10.850;2023-02-25T08:48:59;7.80;73.80
41437;DHT22;27178;49.460;10.850;2023-02-25T08:51:27;7.80;73.80
41437;DHT22;27178;49.460;10.850;2023-02-25T08:54:02;7.80;73.70
41437;DHT22;27178;49.460;10.850;2023-02-25T08:56:30;7.80;73.70
41437;DHT22;27178;49.460;10.850;2023-02-25T08:58:58;7.80;73.60
41437;DHT22;27178;49.460;10.850;2023-02-25T09:01:27;7.80;73.80
41437;DHT22;27178;49.460;10.850;2023-02-25T09:04:13;7.80;73.80
41437;DHT22;27178;49.460;10.850;2023-02-25T09:06:42;7.90;73.80
41437;DHT22;27178;49.460;10.850;2023-02-25T09:09:13;7.90;73.80
41437;DHT22;27178;49.460;10.850;2023-02-25T09:11:41;7.90;73.60
41437;DHT22;27178;49.460;10.850;2023-02-25T09:14:11;7.90;73.50
41437;DHT22;27178;49.460;10.850;2023-02-25T09:16:39;7.90;73.40
41437;DHT22;27178;49.460;10.850;2023-02-25T09:19:08;7.90;73.20
41437;DHT22;27178;49.460;10.850;2023-02-25T09:21:40;7.90;73.20
41437;DHT22;27178;49.460;10.850;2023-02-25T09:24:08;7.90;73.10
41437;DHT22;27178;49.460;10.850;2023-02-25T09:26:37;7.90;72.50
41437;DHT22;27178;49.460;10.850;2023-02-25T09:29:06;7.90;72.80
41437;DHT22;27178;49.460;10.850;2023-02-25T09:31:35;7.90;72.80
41437;DHT22;27178;49.460;10.850;2023-02-25T09:34:06;7.90;73.10
41437;DHT22;27178;49.460;10.850;2023-02-25T09:36:35;7.90;73.00
41437;DHT22;27178;49.460;10.850;2023-02-25T09:39:05;7.90;73.10
41437;DHT22;27178;49.460;10.850;2023-02-25T09:41:41;8.00;73.20
41437;DHT22;27178;49.460;10.850;2023-02-25T09:44:13;8.00;73.30
41437;DHT22;27178;49.460;10.850;2023-02-25T09:46:48;8.00;73.30
41437;DHT22;27178;49.460;10.850;2023-02-25T09:49:23;8.10;73.30
41437;DHT22;27178;49.460;10.850;2023-02-25T09:51:58;8.10;73.30
41437;DHT22;27178;49.460;10.850;2023-02-25T09:54:33;8.10;73.10
41437;DHT22;27178;49.460;10.850;2023-02-25T09:57:05;8.10;73.10
41437;DHT22;27178;49.460;10.850;2023-02-25T09:59:34;8.20;73.10
41437;DHT22;27178;49.460;10.850;2023-02-25T10:02:22;8.20;73.00
41437;DHT22;27178;49.460;10.850;2023-02-25T10:05:14;8.20;73.00
41437;DHT22;27178;49.460;10.850;2023-02-25T10:07:53;8.30;73.00
41437;DHT22;27178;49.460;10.850;2023-02-25T10:10:32;8.30;72.90
41437;DHT22;27178;49.460;10.850;2023-02-25T10:13:13;8.30;72.80
41437;DHT22;27178;49.460;10.850;2023-02-25T10:15:53;8.30;72.70
41437;DHT22;27178;49.460;10.850;2023-02-25T10:18:38;8.30;72.70
41437;DHT22;27178;49.460;10.850;2023-02-25T10:21:22;8.40;72.80
41437;DHT22;27178;49.460;10.850;2023-02-25T10:24:04;8.40;72.90
41437;DHT22;27178;49.460;10.850;2023-02-25T10:26:41;8.40;72.70
41437;DHT22;27178;49.460;10.850;2023-02-25T10:29:15;8.40;72.70
41437;DHT22;27178;49.460;10.850;2023-02-25T10:31:46;8.40;72.50
41437;DHT22;27178;49.460;10.850;2023-02-25T10:34:20;8.40;72.30
41437;DHT22;27178;49.460;10.850;2023-02-25T10:36:53;8.40;72.40
41437;DHT22;27178;49.460;10.850;2023-02-25T10:39:23;8.50;72.60
41437;DHT22;27178;49.460;10.850;2023-02-25T10:41:53;8.50;72.90
41437;DHT22;27178;49.460;10.850;2023-02-25T10:44:22;8.50;72.90
41437;DHT22;27178;49.460;10.850;2023-02-25T10:46:53;8.50;72.70
41437;DHT22;27178;49.460;10.850;2023-02-25T10:49:24;8.60;72.70
41437;DHT22;27178;49.460;10.850;2023-02-25T10:51:56;8.60;72.70
41437;DHT22;27178;49.460;10.850;2023-02-25T10:54:26;8.60;72.60
41437;DHT22;27178;49.460;10.850;2023-02-25T10:56:59;8.60;72.60
41437;DHT22;27178;49.460;10.850;2023-02-25T10:59:35;8.70;72.50
41437;DHT22;27178;49.460;10.850;2023-02-25T11:02:19;8.70;72.20
41437;DHT22;27178;49.460;10.850;2023-02-25T11:04:49;8.70;72.20
41437;DHT22;27178;49.460;10.850;2023-02-25T11:07:26;8.70;72.40
41437;DHT22;27178;49.460;10.850;2023-02-25T11:10:14;8.80;72.30
41437;DHT22;27178;49.460;10.850;2023-02-25T11:12:47;8.80;71.90
41437;DHT22;27178;49.460;10.850;2023-02-25T11:15:34;8.80;72.00
41437;DHT22;27178;49.460;10.850;2023-02-25T11:18:20;8.90;71.90
41437;DHT22;27178;49.460;10.850;2023-02-25T11:20:51;8.80;71.90
41437;DHT22;27178;49.460;10.850;2023-02-25T11:23:22;8.80;72.10
41437;DHT22;27178;49.460;10.850;2023-02-25T11:25:55;8.90;72.60
41437;DHT22;27178;49.460;10.850;2023-02-25T11:28:29;8.90;72.80
41437;DHT22;27178;49.460;10.850;2023-02-25T11:31:16;9.00;73.00
41437;DHT22;27178;49.460;10.850;2023-02-25T11:33:49;9.10;72.60
41437;DHT22;27178;49.460;10.850;2023-02-25T11:36:21;9.30;73.10
41437;DHT22;27178;49.460;10.850;2023-02-25T11:39:04;9.30;73.20
41437;DHT22;27178;49.460;10.850;2023-02-25T11:41:33;9.50;72.30
41437;DHT22;27178;49.460;10.850;2023-02-25T11:44:20;9.60;72.10
41437;DHT22;27178;49.460;10.850;2023-02-25T11:46:58;9.60;71.60
41437;DHT22;27178;49.460;10.850;2023-02-25T11:49:38;9.70;71.60
41437;DHT22;27178;49.460;10.850;2023-02-25T11:52:15;9.70;71.60
41437;DHT22;27178;49.460;10.850;2023-02-25T11:54:54;9.70;71.50
41437;DHT22;27178;49.460;10.850;2023-02-25T11:57:31;9.60;71.50
41437;DHT22;27178;49.460;10.850;2023-02-25T12:00:15;9.50;71.30
41437;DHT22;27178;49.460;10.850;2023-02-25T12:02:59;9.40;71.30
41437;DHT22;27178;49.460;10.850;2023-02-25T12:05:46;9.30;71.50
41437;DHT22;27178;49.460;10.850;2023-02-25T12:08:34;9.20;71.90
41437;DHT22;27178;49.460;10.850;2023-02-25T12:11:28;9.10;72.30
41437;DHT22;27178;49.460;10.850;2023-02-25T12:14:29;9.00;72.60
41437;DHT22;27178;49.460;10.850;2023-02-25T12:26:45;9.00;73.20
41437;DHT22;27178;49.460;10.850;2023-02-25T12:29:31;9.10;73.20
41437;DHT22;27178;49.460;10.850;2023-02-25T12:32:11;9.10;73.30
41437;DHT22;27178;49.460;10.850;2023-02-25T12:34:55;9.10;73.10
41437;DHT22;27178;49.460;10.850;2023-02-25T12:38:00;9.10;72.90
41437;DHT22;27178;49.460;10.850;2023-02-25T12:40:40;9.10;72.80
41437;DHT22;27178;49.460;10.850;2023-02-25T12:43:22;9.10;73.00
41437;DHT22;27178;49.460;10.850;2023-02-25T12:46:30;9.10;73.20
41437;DHT22;27178;49.460;10.850;2023-02-25T12:52:22;9.00;72.80
41437;DHT22;27178;49.460;10.850;2023-02-25T12:58:06;8.90;72.40
41437;DHT22;27178;49.460;10.850;2023-02-25T13:01:05;8.80;72.40
41437;DHT22;27178;49.460;10.850;2023-02-25T13:03:55;8.70;72.70
41437;DHT22;27178;49.460;10.850;2023-02-25T13:07:02;8.70;72.90
41437;DHT22;27178;49.460;10.850;2023-02-25T13:10:10;8.60;72.90
41437;DHT22;27178;49.460;10.850;2023-02-25T13:13:00;8.60;73.00
41437;DHT22;27178;49.460;10.850;2023-02-25T13:15:35;8.50;73.10
41437;DHT22;27178;49.460;10.850;2023-02-25T13:18:17;8.40;73.30
41437;DHT22;27178;49.460;10.850;2023-02-25T13:20:59;8.40;73.50
41437;DHT22;27178;49.460;10.850;2023-02-25T13:23:53;8.40;73.80
41437;DHT22;27178;49.460;10.850;2023-02-25T13:26:37;8.40;73.40
41437;DHT22;27178;49.460;10.850;2023-02-25T13:29:25;8.30;73.20
41437;DHT22;27178;49.460;10.850;2023-02-25T13:32:09;8.30;73.20
41437;DHT22;27178;49.460;10.850;2023-02-25T13:34:45;8.30;73.30
41437;DHT22;27178;49.460;10.850;2023-02-25T13:37:27;8.20;73.40
41437;DHT22;27178;49.460;10.850;2023-02-25T13:40:30;8.20;73.60
41437;DHT22;27178;49.460;10.850;2023-02-25T13:43:17;8.20;73.50
41437;DHT22;27178;49.460;10.850;2023-02-25T13:46:01;8.20;73.80
41437;DHT22;27178;49.460;10.850;2023-02-25T13:48:54;8.10;73.80
41437;DHT22;27178;49.460;10.850;2023-02-25T13:54:40;8.10;74.00
41437;DHT22;27178;49.460;10.850;2023-02-25T13:57:20;8.10;73.90
41437;DHT22;27178;49.460;10.850;2023-02-25T14:00:17;8.10;73.90
41437;DHT22;27178;49.460;10.850;2023-02-25T14:05:58;8.00;74.00
41437;DHT22;27178;49.460;10.850;2023-02-25T14:08:55;8.00;74.00
41437;DHT22;27178;49.460;10.850;2023-02-25T14:11:33;8.00;74.00
41437;DHT22;27178;49.460;10.850;2023-02-25T14:14:21;7.90;73.90
41437;DHT22;27178;49.460;10.850;2023-02-25T14:17:11;7.90;74.10
41437;DHT22;27178;49.460;10.850;2023-02-25T14:19:51;7.90;74.20
41437;DHT22;27178;49.460;10.850;2023-02-25T14:22:35;7.90;74.20
41437;DHT22;27178;49.460;10.850;2023-02-25T14:25:40;7.90;74.40
41437;DHT22;27178;49.460;10.850;2023-02-25T14:28:17;7.80;74.40
41437;DHT22;27178;49.460;10.850;2023-02-25T14:30:58;7.80;74.40
41437;DHT22;27178;49.460;10.850;2023-02-25T14:36:49;7.80;74.60
41437;DHT22;27178;49.460;10.850;2023-02-25T14:39:35;7.80;74.70
41437;DHT22;27178;49.460;10.850;2023-02-25T14:42:26;7.80;74.60
41437;DHT22;27178;49.460;10.850;2023-02-25T14:45:00;7.80;74.70
41437;DHT22;27178;49.460;10.850;2023-02-25T14:47:31;7.80;74.70
41437;DHT22;27178;49.460;10.850;2023-02-25T14:50:04;7.80;74.60
41437;DHT22;27178;49.460;10.850;2023-02-25T14:55:56;7.80;74.30
41437;DHT22;27178;49.460;10.850;2023-02-25T15:02:09;7.80;74.20
41437;DHT22;27178;49.460;10.850;2023-02-25T15:05:17;7.80;74.60
41437;DHT22;27178;49.460;10.850;2023-02-25T15:10:58;8.10;74.60
41437;DHT22;27178;49.460;10.850;2023-02-25T15:17:26;8.20;73.80
41437;DHT22;27178;49.460;10.850;2023-02-25T15:20:17;8.30;73.50
41437;DHT22;27178;49.460;10.850;2023-02-25T15:22:55;8.30;73.80
41437;DHT22;27178;49.460;10.850;2023-02-25T15:25:42;8.40;74.30
41437;DHT22;27178;49.460;10.850;2023-02-25T15:31:34;8.80;73.10
41437;DHT22;27178;49.460;10.850;2023-02-25T15:37:32;9.00;71.90
41437;DHT22;27178;49.460;10.850;2023-02-25T15:40:42;9.00;71.50
41437;DHT22;27178;49.460;10.850;2023-02-25T15:43:34;8.90;71.30
41437;DHT22;27178;49.460;10.850;2023-02-25T15:46:25;8.90;71.30
41437;DHT22;27178;49.460;10.850;2023-02-25T15:49:03;8.80;71.00
41437;DHT22;27178;49.460;10.850;2023-02-25T15:51:42;8.70;71.20
41437;DHT22;27178;49.460;10.850;2023-02-25T15:54:45;8.60;71.30
41437;DHT22;27178;49.460;10.850;2023-02-25T15:57:34;8.60;71.60
41437;DHT22;27178;49.460;10.850;2023-02-25T16:06:14;8.20;71.60
41437;DHT22;27178;49.460;10.850;2023-02-25T16:08:48;8.10;71.70
41437;DHT22;27178;49.460;10.850;2023-02-25T16:11:25;8.10;71.80
41437;DHT22;27178;49.460;10.850;2023-02-25T16:13:57;8.00;72.00
41437;DHT22;27178;49.460;10.850;2023-02-25T16:16:28;7.90;72.20
41437;DHT22;27178;49.460;10.850;2023-02-25T16:18:57;7.80;72.20
41437;DHT22;27178;49.460;10.850;2023-02-25T16:21:32;7.80;72.20
41437;DHT22;27178;49.460;10.850;2023-02-25T16:24:07;7.70;72.30
41437;DHT22;27178;49.460;10.850;2023-02-25T16:26:49;7.60;72.50
41437;DHT22;27178;49.460;10.850;2023-02-25T16:29:33;7.60;72.70
41437;DHT22;27178;49.460;10.850;2023-02-25T16:32:07;7.50;72.70
41437;DHT22;27178;49.460;10.850;2023-02-25T16:34:40;7.50;72.80
41437;DHT22;27178;49.460;10.850;2023-02-25T16:37:15;7.40;72.90
41437;DHT22;27178;49.460;10.850;2023-02-25T16:39:47;7.40;72.90
41437;DHT22;27178;49.460;10.850;2023-02-25T16:42:18;7.30;72.90
41437;DHT22;27178;49.460;10.850;2023-02-25T16:44:55;7.30;73.20
41437;DHT22;27178;49.460;10.850;2023-02-25T16:47:25;7.30;73.30
41437;DHT22;27178;49.460;10.850;2023-02-25T16:49:55;7.20;73.30
41437;DHT22;27178;49.460;10.850;2023-02-25T16:52:29;7.20;73.30
41437;DHT22;27178;49.460;10.850;2023-02-25T16:54:59;7.20;73.30
41437;DHT22;27178;49.460;10.850;2023-02-25T16:57:33;7.20;73.30
41437;DHT22;27178;49.460;10.850;2023-02-25T17:00:14;7.20;73.40
41437;DHT22;27178;49.460;10.850;2023-02-25T17:02:45;7.10;73.50
41437;DHT22;27178;49.460;10.850;2023-02-25T17:05:26;7.10;73.30
41437;DHT22;27178;49.460;10.850;2023-02-25T17:07:57;7.10;73.30